createdAt,value
2023-05-01T00:00:23.990Z,19.43
2023-05-01T00:02:50.482Z,19.28
2023-05-01T00:05:17.133Z,19.01
2023-05-01T00:07:43.494Z,19.05
2023-05-01T00:10:09.956Z,19.06
2023-05-01T00:12:36.362Z,18.80
2023-05-01T00:15:02.768Z,19.04
2023-05-01T00:17:31.021Z,18.81
2023-05-01T00:19:58.179Z,18.73
2023-05-01T00:22:24.916Z,18.69
2023-05-01T00:24:51.682Z,18.65
2023-05-01T00:27:18.105Z,18.65
2023-05-01T00:29:44.530Z,18.58
2023-05-01T00:32:11.130Z,18.58
2023-05-01T00:34:37.787Z,18.45
2023-05-01T00:37:04.174Z,18.45
2023-05-01T00:39:30.555Z,17.52
2023-05-01T00:41:57.550Z,17.42
2023-05-01T00:44:23.976Z,17.50
2023-05-01T00:46:50.390Z,17.54
2023-05-01T00:49:17.670Z,17.99
2023-05-01T00:51:44.504Z,18.11
2023-05-01T00:54:10.916Z,17.83
2023-05-01T00:56:37.537Z,17.78
2023-05-01T00:59:04.283Z,17.73
2023-05-01T01:01:30.756Z,17.74
2023-05-01T01:03:57.353Z,17.83
2023-05-01T01:06:42.895Z,17.87
2023-05-01T01:09:34.188Z,17.74
2023-05-01T01:12:11.519Z,17.58
2023-05-01T01:15:05.535Z,17.71
2023-05-01T01:18:05.120Z,17.65
2023-05-01T01:20:35.131Z,17.62
2023-05-01T01:23:13.951Z,17.60
2023-05-01T01:26:00.144Z,17.44
2023-05-01T01:28:46.423Z,17.40
2023-05-01T01:31:29.788Z,17.49
2023-05-01T01:34:04.108Z,17.42
2023-05-01T01:36:49.769Z,17.08
2023-05-01T01:39:25.710Z,16.99
2023-05-01T01:41:53.679Z,17.33
2023-05-01T01:44:24.399Z,17.28
2023-05-01T01:46:51.467Z,17.13
2023-05-01T01:49:20.900Z,17.13
2023-05-01T01:51:47.596Z,17.15
2023-05-01T01:54:13.910Z,17.16
2023-05-01T01:56:40.582Z,17.15
2023-05-01T01:59:06.874Z,17.09
2023-05-01T02:01:33.200Z,16.95
2023-05-01T02:04:00.449Z,16.95
2023-05-01T02:06:26.941Z,16.82
2023-05-01T02:08:53.300Z,16.66
2023-05-01T02:11:20.859Z,16.89
2023-05-01T02:13:47.780Z,16.90
2023-05-01T02:16:14.524Z,16.82
2023-05-01T02:18:41.515Z,16.78
2023-05-01T02:21:08.296Z,16.79
2023-05-01T02:23:34.605Z,16.80
2023-05-01T02:26:01.087Z,16.84
2023-05-01T02:28:27.494Z,16.83
2023-05-01T02:30:53.798Z,16.59
2023-05-01T02:33:20.116Z,16.83
2023-05-01T02:35:49.530Z,16.82
2023-05-01T02:38:16.209Z,16.77
2023-05-01T02:40:47.277Z,16.72
2023-05-01T02:43:13.971Z,16.77
2023-05-01T02:45:40.450Z,16.64
2023-05-01T02:48:07.319Z,16.65
2023-05-01T02:50:33.704Z,16.73
2023-05-01T02:53:00.219Z,16.52
2023-05-01T02:55:26.653Z,16.75
2023-05-01T02:57:52.977Z,16.67
2023-05-01T03:00:19.618Z,16.49
2023-05-01T03:02:46.143Z,16.64
2023-05-01T03:05:12.523Z,16.30
2023-05-01T03:07:38.906Z,16.39
2023-05-01T03:10:05.568Z,16.48
2023-05-01T03:12:31.866Z,16.37
2023-05-01T03:14:58.223Z,16.46
2023-05-01T03:17:24.702Z,16.44
2023-05-01T03:19:51.564Z,16.32
2023-05-01T03:22:17.960Z,16.29
2023-05-01T03:24:44.259Z,16.42
2023-05-01T03:27:10.960Z,16.32
2023-05-01T03:29:38.074Z,16.51
2023-05-01T03:32:04.891Z,16.76
2023-05-01T03:34:31.324Z,16.96
2023-05-01T03:36:57.927Z,16.76
2023-05-01T03:39:24.197Z,16.64
2023-05-01T03:41:50.496Z,16.62
2023-05-01T03:44:16.771Z,16.56
2023-05-01T03:46:44.400Z,16.53
2023-05-01T03:49:10.774Z,16.50
2023-05-01T03:51:37.329Z,16.33
2023-05-01T03:54:03.694Z,16.46
2023-05-01T03:56:35.803Z,16.48
2023-05-01T03:59:02.287Z,16.35
2023-05-01T04:01:28.645Z,16.65
2023-05-01T04:03:55.212Z,16.80
2023-05-01T04:06:22.821Z,16.65
2023-05-01T04:08:49.277Z,16.57
2023-05-01T04:11:15.611Z,16.67
2023-05-01T04:13:42.141Z,16.52
2023-05-01T04:16:08.536Z,16.60
2023-05-01T04:18:35.059Z,16.60
2023-05-01T04:21:01.363Z,16.66
2023-05-01T04:23:27.899Z,16.70
2023-05-01T04:25:54.206Z,16.75
2023-05-01T04:28:20.530Z,16.79
2023-05-01T04:30:46.929Z,16.87
2023-05-01T04:33:16.880Z,17.16
2023-05-01T04:35:43.629Z,17.34
2023-05-01T04:38:12.917Z,17.57
2023-05-01T04:40:39.216Z,17.76
2023-05-01T04:43:05.568Z,17.88
2023-05-01T04:45:32.046Z,17.94
2023-05-01T04:47:58.368Z,17.99
2023-05-01T04:50:24.669Z,18.06
2023-05-01T04:52:50.997Z,18.18
2023-05-01T04:55:17.416Z,17.69
2023-05-01T04:57:43.744Z,17.86
2023-05-01T05:00:10.348Z,18.01
2023-05-01T05:02:37.249Z,18.72
2023-05-01T05:05:03.748Z,18.67
2023-05-01T05:07:30.288Z,18.62
2023-05-01T05:09:57.015Z,18.45
2023-05-01T05:12:23.543Z,18.70
2023-05-01T05:14:49.946Z,18.67
2023-05-01T05:17:16.281Z,18.71
2023-05-01T05:19:42.562Z,18.94
2023-05-01T05:22:08.948Z,18.91
2023-05-01T05:24:35.235Z,18.85
2023-05-01T05:27:01.549Z,19.24
2023-05-01T05:29:27.819Z,19.43
2023-05-01T05:31:54.252Z,19.54
2023-05-01T05:34:20.689Z,19.24
2023-05-01T05:36:47.224Z,19.42
2023-05-01T05:39:13.833Z,19.60
2023-05-01T05:41:40.199Z,19.73
2023-05-01T05:44:06.494Z,20.21
2023-05-01T05:46:32.890Z,19.85
2023-05-01T05:48:59.280Z,19.75
2023-05-01T05:51:25.589Z,19.85
2023-05-01T05:53:52.007Z,20.24
2023-05-01T05:56:18.307Z,20.43
2023-05-01T05:58:44.602Z,20.42
2023-05-01T06:01:11.672Z,20.70
2023-05-01T06:03:38.255Z,20.94
2023-05-01T06:06:04.920Z,20.92
2023-05-01T06:08:31.470Z,21.07
2023-05-01T06:10:58.869Z,21.28
2023-05-01T06:13:25.438Z,21.73
2023-05-01T06:15:52.267Z,21.60
2023-05-01T06:18:18.674Z,21.39
2023-05-01T06:20:45.288Z,21.73
2023-05-01T06:23:13.709Z,21.39
2023-05-01T06:25:40.536Z,21.73
2023-05-01T06:28:06.929Z,21.30
2023-05-01T06:30:33.218Z,21.37
2023-05-01T06:32:59.586Z,21.92
2023-05-01T06:35:25.998Z,22.66
2023-05-01T06:37:52.324Z,23.31
2023-05-01T06:40:18.589Z,23.38
2023-05-01T06:42:44.900Z,23.29
2023-05-01T06:45:11.214Z,22.92
2023-05-01T06:47:37.621Z,23.13
2023-05-01T06:50:05.723Z,22.59
2023-05-01T06:52:32.253Z,22.72
2023-05-01T06:54:58.557Z,23.23
2023-05-01T06:57:24.888Z,22.86
2023-05-01T06:59:51.170Z,22.80
2023-05-01T07:02:17.532Z,22.86
2023-05-01T07:04:44.459Z,22.73
2023-05-01T07:07:10.806Z,23.40
2023-05-01T07:09:37.320Z,23.88
2023-05-01T07:12:03.807Z,24.19
2023-05-01T07:14:30.103Z,23.99
2023-05-01T07:16:56.506Z,24.85
2023-05-01T07:19:22.887Z,24.94
2023-05-01T07:21:49.428Z,25.37
2023-05-01T07:24:16.782Z,25.44
2023-05-01T07:26:43.150Z,25.13
2023-05-01T07:29:09.779Z,25.37
2023-05-01T07:31:36.356Z,24.38
2023-05-01T07:34:02.715Z,25.08
2023-05-01T07:36:29.434Z,25.55
2023-05-01T07:38:56.644Z,25.67
2023-05-01T07:41:25.038Z,25.91
2023-05-01T07:43:51.345Z,25.74
2023-05-01T07:46:17.794Z,25.92
2023-05-01T07:48:44.453Z,25.96
2023-05-01T07:51:10.762Z,26.40
2023-05-01T07:53:37.067Z,26.39
2023-05-01T07:56:07.607Z,26.81
2023-05-01T07:58:34.400Z,26.53
2023-05-01T08:01:00.700Z,25.72
2023-05-01T08:03:30.521Z,25.94
2023-05-01T08:05:57.127Z,26.91
2023-05-01T08:08:23.587Z,27.36
2023-05-01T08:10:50.811Z,27.60
2023-05-01T08:13:17.179Z,27.56
2023-05-01T08:15:43.594Z,27.77
2023-05-01T08:18:09.988Z,26.91
2023-05-01T08:20:36.527Z,27.59
2023-05-01T08:23:02.838Z,27.91
2023-05-01T08:25:29.724Z,27.29
2023-05-01T08:27:56.306Z,27.37
2023-05-01T08:30:22.647Z,27.38
2023-05-01T08:32:49.207Z,27.20
2023-05-01T08:35:15.648Z,28.01
2023-05-01T08:37:42.205Z,27.73
2023-05-01T08:40:09.179Z,27.71
2023-05-01T08:42:36.734Z,27.41
2023-05-01T08:45:03.482Z,26.91
2023-05-01T08:47:30.470Z,27.50
2023-05-01T08:49:57.115Z,27.95
2023-05-01T08:52:23.706Z,28.18
2023-05-01T08:54:50.084Z,27.27
2023-05-01T08:57:16.396Z,27.22
2023-05-01T08:59:42.722Z,26.98
2023-05-01T09:02:09.547Z,26.53
2023-05-01T09:04:39.671Z,27.83
2023-05-01T09:07:06.145Z,27.34
2023-05-01T09:09:33.187Z,27.08
2023-05-01T09:12:13.554Z,28.11
2023-05-01T09:14:39.861Z,28.28
2023-05-01T09:17:06.194Z,28.18
2023-05-01T09:19:32.740Z,29.23
2023-05-01T09:21:59.052Z,29.50
2023-05-01T09:24:25.556Z,30.15
2023-05-01T09:26:52.259Z,30.46
2023-05-01T09:29:37.062Z,30.53
2023-05-01T09:32:13.157Z,29.52
2023-05-01T09:34:39.889Z,29.84
2023-05-01T09:37:06.467Z,28.18
2023-05-01T09:39:32.900Z,29.22
2023-05-01T09:41:59.250Z,28.22
2023-05-01T09:44:26.788Z,28.71
2023-05-01T09:46:53.374Z,29.12
2023-05-01T09:49:19.739Z,29.45
2023-05-01T09:51:46.163Z,29.31
2023-05-01T09:54:19.568Z,29.13
2023-05-01T09:56:47.041Z,29.29
2023-05-01T09:59:20.258Z,29.22
2023-05-01T10:01:48.136Z,29.56
2023-05-01T10:04:14.568Z,30.20
2023-05-01T10:06:41.203Z,29.56
2023-05-01T10:09:09.420Z,29.84
2023-05-01T10:11:48.402Z,30.25
2023-05-01T10:14:14.741Z,30.33
2023-05-01T10:16:41.223Z,29.98
2023-05-01T10:19:07.770Z,30.07
2023-05-01T10:21:35.126Z,29.52
2023-05-01T10:24:03.719Z,30.01
2023-05-01T10:26:30.003Z,30.50
2023-05-01T10:28:59.502Z,30.27
2023-05-01T10:31:29.609Z,30.83
2023-05-01T10:33:56.134Z,29.59
2023-05-01T10:36:34.034Z,30.72
2023-05-01T10:39:00.736Z,30.85
2023-05-01T10:41:45.983Z,31.39
2023-05-01T10:44:27.811Z,31.50
2023-05-01T10:46:54.812Z,30.71
2023-05-01T10:49:21.739Z,30.59
2023-05-01T10:51:58.024Z,30.45
2023-05-01T10:54:24.627Z,30.67
2023-05-01T10:56:51.088Z,30.99
2023-05-01T10:59:17.769Z,31.73
2023-05-01T11:01:53.492Z,32.24
2023-05-01T11:04:22.776Z,30.80
2023-05-01T11:06:58.367Z,31.82
2023-05-01T11:09:43.589Z,31.50
2023-05-01T11:12:11.029Z,32.04
2023-05-01T11:14:52.443Z,31.27
2023-05-01T11:17:37.760Z,30.14
2023-05-01T11:20:05.036Z,30.21
2023-05-01T11:22:31.940Z,31.45
2023-05-01T11:24:58.754Z,31.49
2023-05-01T11:27:25.595Z,31.70
2023-05-01T11:29:51.951Z,31.65
2023-05-01T11:32:19.271Z,31.66
2023-05-01T11:34:46.981Z,31.55
2023-05-01T11:37:13.356Z,30.17
2023-05-01T11:39:46.664Z,30.12
2023-05-01T11:42:13.162Z,30.00
2023-05-01T11:44:39.523Z,29.66
2023-05-01T11:47:07.342Z,30.77
2023-05-01T11:49:33.726Z,31.31
2023-05-01T11:52:00.144Z,31.24
2023-05-01T11:54:26.581Z,31.24
2023-05-01T11:57:00.150Z,31.80
2023-05-01T11:59:26.988Z,32.35
2023-05-01T12:01:53.555Z,32.16
2023-05-01T12:04:23.931Z,32.66
2023-05-01T12:06:51.014Z,32.44
2023-05-01T12:09:18.545Z,32.33
2023-05-01T12:11:46.410Z,32.31
2023-05-01T12:14:14.441Z,32.59
2023-05-01T12:16:41.083Z,30.80
2023-05-01T12:19:07.679Z,31.74
2023-05-01T12:21:34.873Z,32.29
2023-05-01T12:24:07.975Z,32.86
2023-05-01T12:26:34.319Z,31.98
2023-05-01T12:29:01.937Z,32.40
2023-05-01T12:31:28.884Z,31.89
2023-05-01T12:33:57.576Z,31.16
2023-05-01T12:36:29.950Z,31.24
2023-05-01T12:39:01.462Z,31.42
2023-05-01T12:41:50.728Z,31.29
2023-05-01T12:44:25.409Z,32.09
2023-05-01T12:47:04.667Z,32.19
2023-05-01T12:49:32.462Z,32.01
2023-05-01T12:52:03.517Z,31.86
2023-05-01T12:54:32.133Z,31.95
2023-05-01T12:57:08.432Z,31.62
2023-05-01T12:59:39.137Z,31.03
2023-05-01T13:02:15.762Z,30.70
2023-05-01T13:04:50.264Z,30.92
2023-05-01T13:07:18.897Z,31.75
2023-05-01T13:10:11.877Z,31.73
2023-05-01T13:12:44.569Z,32.41
2023-05-01T13:15:21.563Z,32.60
2023-05-01T13:17:48.414Z,32.41
2023-05-01T13:20:15.450Z,32.76
2023-05-01T13:22:42.076Z,32.81
2023-05-01T13:25:16.053Z,32.98
2023-05-01T13:27:48.560Z,33.34
2023-05-01T13:30:16.758Z,33.95
2023-05-01T13:32:43.286Z,33.44
2023-05-01T13:35:10.246Z,33.37
2023-05-01T13:37:36.768Z,33.20
2023-05-01T13:40:03.594Z,32.72
2023-05-01T13:42:30.010Z,32.03
2023-05-01T13:44:57.753Z,32.27
2023-05-01T13:47:28.295Z,32.14
2023-05-01T13:49:54.766Z,32.04
2023-05-01T13:52:21.222Z,31.51
2023-05-01T13:54:48.241Z,31.31
2023-05-01T13:57:15.987Z,31.41
2023-05-01T13:59:43.976Z,31.56
2023-05-01T14:02:24.211Z,32.12
2023-05-01T14:04:50.815Z,33.05
2023-05-01T14:07:23.103Z,33.36
2023-05-01T14:09:54.899Z,33.44
2023-05-01T14:12:29.253Z,33.83
2023-05-01T14:14:56.412Z,33.84
2023-05-01T14:17:30.086Z,33.83
2023-05-01T14:19:56.566Z,33.48
2023-05-01T14:22:23.028Z,32.19
2023-05-01T14:24:50.103Z,32.50
2023-05-01T14:27:16.550Z,31.87
2023-05-01T14:29:46.905Z,31.93
2023-05-01T14:32:13.348Z,31.33
2023-05-01T14:34:41.901Z,32.06
2023-05-01T14:37:12.048Z,31.83
2023-05-01T14:39:39.403Z,31.43
2023-05-01T14:42:06.100Z,32.06
2023-05-01T14:44:32.650Z,31.57
2023-05-01T14:46:59.236Z,31.62
2023-05-01T14:49:26.045Z,31.01
2023-05-01T14:51:53.544Z,30.71
2023-05-01T14:54:21.131Z,30.52
2023-05-01T14:56:48.309Z,30.70
2023-05-01T14:59:15.056Z,30.56
2023-05-01T15:01:41.653Z,30.10
2023-05-01T15:04:08.357Z,30.33
2023-05-01T15:06:35.048Z,30.38
2023-05-01T15:09:14.017Z,30.29
2023-05-01T15:11:40.387Z,30.65
2023-05-01T15:14:06.777Z,30.78
2023-05-01T15:16:33.217Z,31.28
2023-05-01T15:18:59.707Z,31.54
2023-05-01T15:21:26.246Z,30.98
2023-05-01T15:23:52.724Z,31.43
2023-05-01T15:26:20.555Z,31.23
2023-05-01T15:28:47.783Z,31.09
2023-05-01T15:31:14.544Z,30.78
2023-05-01T15:33:41.259Z,30.86
2023-05-01T15:36:07.865Z,30.96
2023-05-01T15:38:34.581Z,30.34
2023-05-01T15:41:00.990Z,30.48
2023-05-01T15:43:27.817Z,31.18
2023-05-01T15:45:57.963Z,30.60
2023-05-01T15:48:26.172Z,30.53
2023-05-01T15:50:52.714Z,30.12
2023-05-01T15:53:20.926Z,30.27
2023-05-01T15:55:47.290Z,30.60
2023-05-01T15:58:14.758Z,30.84
2023-05-01T16:00:41.311Z,30.53
2023-05-01T16:03:08.478Z,29.65
2023-05-01T16:05:36.657Z,29.90
2023-05-01T16:08:05.262Z,30.77
2023-05-01T16:10:37.785Z,30.72
2023-05-01T16:13:06.282Z,29.88
2023-05-01T16:15:33.222Z,29.94
2023-05-01T16:18:01.396Z,30.46
2023-05-01T16:20:29.175Z,30.52
2023-05-01T16:22:55.615Z,30.04
2023-05-01T16:25:22.071Z,29.93
2023-05-01T16:27:48.504Z,29.08
2023-05-01T16:30:15.004Z,28.23
2023-05-01T16:32:42.355Z,26.89
2023-05-01T16:35:17.390Z,26.65
2023-05-01T16:37:44.035Z,26.61
2023-05-01T16:40:11.623Z,26.20
2023-05-01T16:42:38.824Z,25.97
2023-05-01T16:45:08.505Z,25.80
2023-05-01T16:47:35.191Z,26.66
2023-05-01T16:50:02.134Z,27.41
2023-05-01T16:52:28.763Z,26.72
2023-05-01T16:54:56.516Z,26.16
2023-05-01T16:57:23.636Z,26.99
2023-05-01T16:59:49.928Z,27.35
2023-05-01T17:02:16.343Z,26.36
2023-05-01T17:04:42.758Z,26.60
2023-05-01T17:07:09.182Z,26.40
2023-05-01T17:09:35.612Z,25.49
2023-05-01T17:12:03.673Z,25.65
2023-05-01T17:14:31.007Z,25.60
2023-05-01T17:17:00.414Z,25.26
2023-05-01T17:19:26.856Z,25.37
2023-05-01T17:21:53.608Z,25.72
2023-05-01T17:24:20.193Z,24.94
2023-05-01T17:26:46.971Z,25.37
2023-05-01T17:29:13.318Z,26.09
2023-05-01T17:31:39.688Z,25.33
2023-05-01T17:34:06.121Z,25.78
2023-05-01T17:36:32.580Z,25.21
2023-05-01T17:39:01.317Z,25.12
2023-05-01T17:41:27.775Z,24.50
2023-05-01T17:43:55.335Z,24.96
2023-05-01T17:46:22.002Z,24.95
2023-05-01T17:48:51.837Z,24.78
2023-05-01T17:51:18.278Z,24.29
2023-05-01T17:53:44.677Z,24.04
2023-05-01T17:56:11.242Z,24.74
2023-05-01T17:58:37.697Z,24.48
2023-05-01T18:01:07.041Z,24.63
2023-05-01T18:03:33.778Z,24.44
2023-05-01T18:06:02.570Z,24.84
2023-05-01T18:08:29.351Z,24.90
2023-05-01T18:10:55.921Z,25.20
2023-05-01T18:13:27.835Z,25.42
2023-05-01T18:15:57.550Z,25.39
2023-05-01T18:18:24.117Z,25.65
2023-05-01T18:20:50.562Z,25.22
2023-05-01T18:23:20.035Z,25.16
2023-05-01T18:25:46.473Z,24.43
2023-05-01T18:28:15.768Z,25.11
2023-05-01T18:30:42.154Z,25.28
2023-05-01T18:33:08.638Z,24.46
2023-05-01T18:35:38.152Z,25.35
2023-05-01T18:38:04.541Z,24.62
2023-05-01T18:40:31.718Z,24.92
2023-05-01T18:42:58.714Z,24.68
2023-05-01T18:45:25.168Z,24.57
2023-05-01T18:47:51.599Z,25.43
2023-05-01T18:50:21.736Z,25.38
2023-05-01T18:52:48.682Z,24.99
2023-05-01T18:55:15.401Z,25.46
2023-05-01T18:57:43.536Z,25.78
2023-05-01T19:00:12.945Z,25.35
2023-05-01T19:02:39.799Z,25.25
2023-05-01T19:05:11.151Z,25.44
2023-05-01T19:07:38.479Z,25.50
2023-05-01T19:10:05.291Z,25.43
2023-05-01T19:12:32.345Z,25.94
2023-05-01T19:14:58.833Z,25.77
2023-05-01T19:17:25.469Z,25.71
2023-05-01T19:19:51.901Z,25.64
2023-05-01T19:22:19.503Z,25.46
2023-05-01T19:24:45.943Z,26.11
2023-05-01T19:27:12.345Z,25.97
2023-05-01T19:29:39.652Z,26.26
2023-05-01T19:32:07.033Z,25.77
2023-05-01T19:34:33.510Z,25.83
2023-05-01T19:37:02.184Z,26.05
2023-05-01T19:39:29.157Z,26.06
2023-05-01T19:41:55.605Z,26.05
2023-05-01T19:44:22.106Z,25.92
2023-05-01T19:46:48.773Z,25.75
2023-05-01T19:49:15.162Z,25.78
2023-05-01T19:51:41.573Z,25.87
2023-05-01T19:54:07.963Z,25.57
2023-05-01T19:56:34.597Z,25.63
2023-05-01T19:59:00.979Z,25.27
2023-05-01T20:01:29.833Z,25.39
2023-05-01T20:03:56.347Z,25.72
2023-05-01T20:06:22.916Z,25.45
2023-05-01T20:08:49.318Z,25.51
2023-05-01T20:11:15.739Z,25.44
2023-05-01T20:13:42.330Z,25.33
2023-05-01T20:16:10.150Z,25.16
2023-05-01T20:18:37.218Z,25.25
2023-05-01T20:21:03.664Z,25.14
2023-05-01T20:23:30.054Z,24.92
2023-05-01T20:25:56.666Z,25.02
2023-05-01T20:28:23.488Z,24.78
2023-05-01T20:30:50.006Z,24.63
2023-05-01T20:33:17.646Z,24.62
2023-05-01T20:35:45.145Z,25.35
2023-05-01T20:38:11.589Z,25.00
2023-05-01T20:40:42.458Z,25.15
2023-05-01T20:43:09.195Z,25.29
2023-05-01T20:45:35.662Z,25.38
2023-05-01T20:48:02.168Z,25.19
2023-05-01T20:50:29.192Z,25.34
2023-05-01T20:52:56.442Z,25.44
2023-05-01T20:55:23.787Z,25.40
2023-05-01T20:57:50.282Z,25.57
2023-05-01T21:00:17.240Z,25.43
2023-05-01T21:02:43.926Z,25.35
2023-05-01T21:05:10.836Z,25.64
2023-05-01T21:07:38.416Z,25.73
2023-05-01T21:10:06.695Z,25.31
2023-05-01T21:12:33.090Z,25.57
2023-05-01T21:14:59.503Z,25.28
2023-05-01T21:17:26.730Z,25.45
2023-05-01T21:19:54.001Z,25.20
2023-05-01T21:22:22.004Z,25.09
2023-05-01T21:24:54.049Z,25.20
2023-05-01T21:27:21.072Z,24.75
2023-05-01T21:30:01.168Z,25.00
2023-05-01T21:32:32.636Z,24.37
2023-05-01T21:35:02.654Z,24.66
2023-05-01T21:37:29.396Z,24.91
2023-05-01T21:39:58.947Z,25.28
2023-05-01T21:42:30.537Z,25.25
2023-05-01T21:45:00.685Z,25.14
2023-05-01T21:47:27.917Z,25.27
2023-05-01T21:49:57.945Z,25.26
2023-05-01T21:52:24.691Z,25.21
2023-05-01T21:54:51.209Z,25.29
2023-05-01T21:57:17.672Z,25.01
2023-05-01T21:59:45.059Z,25.40
2023-05-01T22:02:11.913Z,25.12
2023-05-01T22:04:38.692Z,24.29
2023-05-01T22:07:05.804Z,24.63
2023-05-01T22:09:32.884Z,24.52
2023-05-01T22:11:59.306Z,24.52
2023-05-01T22:14:33.510Z,24.02
2023-05-01T22:17:10.407Z,24.17
2023-05-01T22:19:37.712Z,24.05
2023-05-01T22:22:04.151Z,24.18
2023-05-01T22:24:31.472Z,24.24
2023-05-01T22:26:57.860Z,23.71
2023-05-01T22:29:24.299Z,23.35
2023-05-01T22:31:50.777Z,23.53
2023-05-01T22:34:17.276Z,24.19
2023-05-01T22:36:43.638Z,23.85
2023-05-01T22:39:10.010Z,24.04
2023-05-01T22:41:36.393Z,23.68
2023-05-01T22:44:02.860Z,24.52
2023-05-01T22:46:29.277Z,24.76
2023-05-01T22:48:55.668Z,24.46
2023-05-01T22:51:22.154Z,24.38
2023-05-01T22:53:48.550Z,24.62
2023-05-01T22:56:15.036Z,24.14
2023-05-01T22:58:41.427Z,24.65
2023-05-01T23:01:08.329Z,24.76
2023-05-01T23:03:37.205Z,24.53
2023-05-01T23:06:06.423Z,24.76
2023-05-01T23:08:34.076Z,23.61
2023-05-01T23:11:00.557Z,23.70
2023-05-01T23:13:28.043Z,22.93
2023-05-01T23:15:54.487Z,23.51
2023-05-01T23:18:23.682Z,22.46
2023-05-01T23:20:51.585Z,23.76
2023-05-01T23:23:20.067Z,23.98
2023-05-01T23:25:48.923Z,22.77
2023-05-01T23:28:20.512Z,22.17
2023-05-01T23:30:59.389Z,22.61
2023-05-01T23:33:27.827Z,22.53
2023-05-01T23:35:54.481Z,22.32
2023-05-01T23:38:20.958Z,22.74
2023-05-01T23:40:47.416Z,23.03
2023-05-01T23:43:13.947Z,22.83
2023-05-01T23:45:40.403Z,22.71
2023-05-01T23:48:07.346Z,22.31
2023-05-01T23:50:33.828Z,22.45
2023-05-01T23:53:05.373Z,22.20
2023-05-01T23:55:31.762Z,22.53
2023-05-01T23:57:58.324Z,22.90
